Time;durP1;ratioP1;P1;durP2;ratioP2;P2;SDS_P1;SDS_P2;PMS_P1;PMS_P2;Temp;Humidity;BMP_temperature;BMP_pressure;BME280_temperature;BME280_humidity;BME280_pressure;Samples;Min_cycle;Max_cycle;Signal;HPM_P1;HPM_P2
2023/06/28 00:02:23;;;;;;;;;;;;;;;17.59;54.58;96644.47;5106255;28;19939;-71
2023/06/28 00:04:49;;;;;;;;;;;;;;;17.58;54.82;96653.50;5106218;28;19954;-79
2023/06/28 00:07:15;;;;;;;;;;;;;;;17.57;55.03;96646.59;5105282;28;20231;-71
2023/06/28 00:09:41;;;;;;;;;;;;;;;17.55;54.72;96648.69;5105237;28;19934;-72
2023/06/28 00:12:07;;;;;;;;;;;;;;;17.54;55.04;96663.03;5106026;28;19963;-71
2023/06/28 00:14:33;;;;;;;;;;;;;;;17.52;54.75;96657.19;5105656;28;19939;-71
2023/06/28 00:16:59;;;;;;;;;;;;;;;17.51;55.31;96660.09;5105929;28;20283;-72
2023/06/28 00:19:28;;;;;;;;;;;;;;;17.51;55.42;96662.75;5105078;28;20133;-72
2023/06/28 00:21:55;;;;;;;;;;;;;;;17.51;55.50;96652.91;5105056;28;19947;-77
2023/06/28 00:24:20;;;;;;;;;;;;;;;17.51;55.56;96654.78;5105299;28;19941;-75
2023/06/28 00:26:46;;;;;;;;;;;;;;;17.51;55.41;96652.91;5104735;28;19936;-78
2023/06/28 00:29:12;;;;;;;;;;;;;;;17.50;55.60;96656.66;5105610;28;19977;-78
2023/06/28 00:31:38;;;;;;;;;;;;;;;17.48;55.92;96653.44;5103715;28;19959;-76
2023/06/28 00:34:04;;;;;;;;;;;;;;;17.47;55.89;96649.22;5105578;28;19982;-78
2023/06/28 00:36:30;;;;;;;;;;;;;;;17.45;56.11;96653.97;5104806;28;19977;-79
2023/06/28 00:38:55;;;;;;;;;;;;;;;17.43;56.46;96659.53;5103708;28;19977;-76
2023/06/28 00:41:21;;;;;;;;;;;;;;;17.42;56.40;96665.06;5104694;28;19944;-69
2023/06/28 00:43:48;;;;;;;;;;;;;;;17.41;56.49;96663.50;5104161;28;19970;-70
2023/06/28 00:46:14;;;;;;;;;;;;;;;17.39;56.17;96661.09;5105446;28;19942;-69
2023/06/28 00:48:40;;;;;;;;;;;;;;;17.38;56.27;96664.78;5104505;28;19961;-68
2023/06/28 00:51:06;;;;;;;;;;;;;;;17.38;56.20;96656.81;5104577;28;19936;-70
2023/06/28 00:53:32;;;;;;;;;;;;;;;17.37;55.56;96659.75;5104390;28;20216;-69
2023/06/28 00:55:59;;;;;;;;;;;;;;;17.34;55.56;96658.38;5104819;28;19948;-70
2023/06/28 00:58:25;;;;;;;;;;;;;;;17.31;55.39;96658.91;5104433;28;19940;-79
2023/06/28 01:00:51;;;;;;;;;;;;;;;17.27;55.73;96662.34;5104262;28;19963;-71
2023/06/28 01:03:18;;;;;;;;;;;;;;;17.25;55.56;96666.03;5103331;28;20011;-70
2023/06/28 01:05:48;;;;;;;;;;;;;;;17.25;55.53;96666.03;5104260;28;19940;-70
2023/06/28 01:08:14;;;;;;;;;;;;;;;17.24;55.18;96666.31;5103831;28;19961;-71
2023/06/28 01:10:40;;;;;;;;;;;;;;;17.19;55.76;96669.69;5087068;28;19951;-70
2023/06/28 01:13:06;;;;;;;;;;;;;;;17.19;55.78;96677.66;5086349;28;19951;-69
2023/06/28 01:15:32;;;;;;;;;;;;;;;17.14;55.60;96674.19;5104735;28;19934;-69
2023/06/28 01:18:00;;;;;;;;;;;;;;;17.12;55.28;96670.97;5104236;28;20246;-78
2023/06/28 01:20:30;;;;;;;;;;;;;;;17.11;55.83;96670.16;5103755;28;19936;-70
2023/06/28 01:22:56;;;;;;;;;;;;;;;17.14;55.87;96674.19;5086158;28;19944;-71
2023/06/28 01:25:22;;;;;;;;;;;;;;;17.15;56.08;96678.41;5104216;28;19941;-70
2023/06/28 01:27:49;;;;;;;;;;;;;;;17.17;56.31;96682.41;5102972;28;20268;-71
2023/06/28 01:30:15;;;;;;;;;;;;;;;17.19;56.32;96680.28;5104899;28;19942;-70
2023/06/28 01:32:43;;;;;;;;;;;;;;;17.21;56.63;96672.09;5104576;28;20252;-70
2023/06/28 01:35:10;;;;;;;;;;;;;;;17.23;56.16;96675.28;5107545;28;19970;-73
2023/06/28 01:37:37;;;;;;;;;;;;;;;17.24;56.50;96675.03;5091053;28;19961;-69
2023/06/28 01:40:05;;;;;;;;;;;;;;;17.24;56.38;96668.94;5108696;28;19943;-77
2023/06/28 01:42:33;;;;;;;;;;;;;;;17.27;56.32;96670.28;5108947;28;19934;-81
2023/06/28 01:44:59;;;;;;;;;;;;;;;17.27;56.29;96671.09;5108635;28;20181;-80
2023/06/28 01:47:25;;;;;;;;;;;;;;;17.28;56.96;96667.38;5108885;28;19938;-80
2023/06/28 01:49:51;;;;;;;;;;;;;;;17.27;57.11;96665.78;5107368;28;20266;-81
2023/06/28 01:52:16;;;;;;;;;;;;;;;17.25;57.25;96670.53;5108761;28;20009;-80
2023/06/28 01:54:43;;;;;;;;;;;;;;;17.23;57.58;96667.34;5106755;28;19941;-71
2023/06/28 01:57:08;;;;;;;;;;;;;;;17.20;58.58;96673.97;5107853;28;19935;-70
2023/06/28 01:59:34;;;;;;;;;;;;;;;17.19;57.57;96666.25;5106547;28;19940;-71
2023/06/28 02:02:00;;;;;;;;;;;;;;;17.16;56.67;96659.63;5108548;28;19949;-70
2023/06/28 02:04:26;;;;;;;;;;;;;;;17.12;56.30;96663.81;5106802;28;19940;-70
2023/06/28 02:06:52;;;;;;;;;;;;;;;17.10;56.68;96663.28;5089613;28;20041;-72
2023/06/28 02:09:18;;;;;;;;;;;;;;;17.07;56.63;96661.13;5106375;28;19958;-71
2023/06/28 02:11:43;;;;;;;;;;;;;;;17.06;57.10;96661.41;5107832;28;19939;-71
2023/06/28 02:14:09;;;;;;;;;;;;;;;17.03;56.37;96657.41;5106986;28;19940;-70
2023/06/28 02:16:35;;;;;;;;;;;;;;;17.01;56.87;96659.50;5090035;28;20214;-79
2023/06/28 02:19:02;;;;;;;;;;;;;;;16.99;57.31;96665.06;5106213;28;20254;-77
2023/06/28 02:21:28;;;;;;;;;;;;;;;16.99;56.91;96659.75;5107410;28;19945;-76
2023/06/28 02:23:53;;;;;;;;;;;;;;;16.99;57.62;96661.63;5107255;28;19940;-82
2023/06/28 02:26:19;;;;;;;;;;;;;;;17.00;58.40;96666.63;5107844;28;19943;-80
2023/06/28 02:28:45;;;;;;;;;;;;;;;17.00;58.48;96656.03;5107900;28;19953;-83
2023/06/28 02:31:11;;;;;;;;;;;;;;;17.00;58.01;96661.34;5105872;28;19955;-73
2023/06/28 02:33:37;;;;;;;;;;;;;;;17.02;58.15;96669.03;5106059;28;19934;-71
2023/06/28 02:36:03;;;;;;;;;;;;;;;17.01;58.29;96659.50;5089770;28;19984;-70
2023/06/28 02:38:29;;;;;;;;;;;;;;;17.02;59.42;96671.69;5107482;28;19973;-69
2023/06/28 02:40:55;;;;;;;;;;;;;;;17.01;59.07;96659.50;5107789;28;19938;-71
2023/06/28 02:43:20;;;;;;;;;;;;;;;17.00;59.22;96669.28;5106987;28;20008;-70
2023/06/28 02:45:46;;;;;;;;;;;;;;;17.01;59.22;96670.91;5106503;28;19944;-70
2023/06/28 02:48:12;;;;;;;;;;;;;;;17.01;59.01;96667.47;5107494;28;20223;-70
2023/06/28 02:50:38;;;;;;;;;;;;;;;17.00;59.22;96660.56;5107564;28;19944;-72
2023/06/28 02:53:04;;;;;;;;;;;;;;;16.99;60.11;96665.06;5088712;28;19943;-81
2023/06/28 02:55:29;;;;;;;;;;;;;;;17.00;59.58;96669.28;5106144;28;19942;-81
2023/06/28 02:57:55;;;;;;;;;;;;;;;17.00;59.48;96668.50;5105522;28;19939;-83
2023/06/28 03:00:21;;;;;;;;;;;;;;;17.00;59.53;96664.00;5088381;28;19970;-82
2023/06/28 03:02:47;;;;;;;;;;;;;;;16.99;59.76;96661.63;5107138;28;19940;-82
2023/06/28 03:05:13;;;;;;;;;;;;;;;16.98;58.82;96663.44;5089257;28;19947;-82
2023/06/28 03:07:39;;;;;;;;;;;;;;;16.96;58.92;96660.25;5106494;28;19934;-73
2023/06/28 03:10:05;;;;;;;;;;;;;;;16.96;59.24;96670.06;5088703;28;20273;-72
2023/06/28 03:12:31;;;;;;;;;;;;;;;16.96;59.37;96668.19;5106403;28;19946;-78
2023/06/28 03:14:57;;;;;;;;;;;;;;;16.97;59.17;96667.16;5106648;28;19941;-78
2023/06/28 03:17:22;;;;;;;;;;;;;;;16.97;58.96;96659.22;5106044;28;19937;-76
2023/06/28 03:19:48;;;;;;;;;;;;;;;17.01;59.19;96662.16;5106195;28;19932;-78
2023/06/28 03:22:14;;;;;;;;;;;;;;;17.01;59.20;96660.31;5106769;28;19976;-78
2023/06/28 03:24:40;;;;;;;;;;;;;;;17.03;59.25;96662.72;5106207;28;19985;-78
2023/06/28 03:27:07;;;;;;;;;;;;;;;17.02;59.13;96667.19;5106628;28;19977;-73
2023/06/28 03:29:33;;;;;;;;;;;;;;;17.04;58.90;96667.72;5105688;28;20282;-71
2023/06/28 03:31:59;;;;;;;;;;;;;;;17.05;59.11;96668.56;5106655;28;19953;-72
2023/06/28 03:34:25;;;;;;;;;;;;;;;17.07;59.07;96674.38;5106549;28;19943;-72
2023/06/28 03:36:51;;;;;;;;;;;;;;;17.07;59.57;96673.56;5105535;28;19945;-71
2023/06/28 03:39:18;;;;;;;;;;;;;;;17.06;59.67;96678.09;5105842;28;19933;-71
2023/06/28 03:41:44;;;;;;;;;;;;;;;17.06;60.22;96679.94;5105782;28;19940;-71
2023/06/28 03:44:09;;;;;;;;;;;;;;;17.03;60.38;96675.97;5105779;28;19936;-78
2023/06/28 03:46:35;;;;;;;;;;;;;;;17.00;60.55;96679.88;5105248;28;19939;-71
2023/06/28 03:49:01;;;;;;;;;;;;;;;16.97;60.77;96676.97;5105519;28;20269;-71
2023/06/28 03:51:27;;;;;;;;;;;;;;;16.96;60.92;96678.00;5105680;28;19945;-71
2023/06/28 03:53:53;;;;;;;;;;;;;;;16.95;61.45;96679.06;5106001;28;19936;-72
2023/06/28 03:56:19;;;;;;;;;;;;;;;16.94;62.23;96688.84;5105524;28;19935;-70
2023/06/28 03:58:45;;;;;;;;;;;;;;;16.90;61.36;96681.66;5105508;28;19931;-71
2023/06/28 04:01:10;;;;;;;;;;;;;;;16.83;60.47;96681.88;5105417;28;20022;-71
2023/06/28 04:03:36;;;;;;;;;;;;;;;16.78;59.93;96677.31;5105681;28;19946;-70
2023/06/28 04:06:02;;;;;;;;;;;;;;;16.72;60.56;96674.88;5105309;28;19942;-72
2023/06/28 04:08:28;;;;;;;;;;;;;;;16.63;59.88;96677.16;5104351;28;19958;-73
2023/06/28 04:10:54;;;;;;;;;;;;;;;16.55;60.38;96677.63;5105231;28;19935;-73
2023/06/28 04:13:20;;;;;;;;;;;;;;;16.54;60.65;96679.44;5105745;28;20172;-73
2023/06/28 04:15:46;;;;;;;;;;;;;;;16.55;60.02;96680.28;5105110;28;19947;-73
2023/06/28 04:18:12;;;;;;;;;;;;;;;16.53;60.84;96683.16;5104001;28;19943;-73
2023/06/28 04:20:37;;;;;;;;;;;;;;;16.58;60.80;96682.41;5105654;28;20151;-73
2023/06/28 04:23:03;;;;;;;;;;;;;;;16.61;60.91;96679.28;5105280;28;19954;-74
2023/06/28 04:25:29;;;;;;;;;;;;;;;16.69;61.25;96689.38;5104010;28;20126;-69
2023/06/28 04:27:55;;;;;;;;;;;;;;;16.76;60.62;96683.91;5105679;28;19938;-70
2023/06/28 04:30:21;;;;;;;;;;;;;;;16.80;60.07;96682.34;5105580;28;19955;-70
2023/06/28 04:32:47;;;;;;;;;;;;;;;16.84;61.69;96688.78;5103776;28;19954;-70
2023/06/28 04:35:14;;;;;;;;;;;;;;;16.86;59.46;96675.25;5105310;28;20007;-70
2023/06/28 04:37:40;;;;;;;;;;;;;;;16.84;59.63;96681.63;5104795;28;19948;-70
2023/06/28 04:40:06;;;;;;;;;;;;;;;16.87;60.03;96672.38;5104750;28;20216;-76
2023/06/28 04:42:32;;;;;;;;;;;;;;;16.89;60.11;96685.38;5104330;28;19938;-76
2023/06/28 04:44:59;;;;;;;;;;;;;;;16.93;60.27;96686.47;5104624;28;19934;-77
2023/06/28 04:47:28;;;;;;;;;;;;;;;16.94;59.36;96674.81;5105376;28;20109;-76
2023/06/28 04:49:54;;;;;;;;;;;;;;;16.90;59.22;96679.81;5103597;28;19964;-79
2023/06/28 04:52:21;;;;;;;;;;;;;;;16.84;58.96;96676.34;5086557;28;20216;-77
2023/06/28 04:54:47;;;;;;;;;;;;;;;16.80;59.32;96677.88;5104522;28;19933;-77
2023/06/28 04:57:17;;;;;;;;;;;;;;;16.84;60.96;96680.84;5103930;28;19933;-77
2023/06/28 04:59:43;;;;;;;;;;;;;;;16.91;61.08;96688.56;5104479;28;19977;-69
2023/06/28 05:02:09;;;;;;;;;;;;;;;16.99;61.58;96690.75;5104950;28;20110;-72
2023/06/28 05:04:35;;;;;;;;;;;;;;;17.06;61.76;96687.91;5105288;28;19977;-73
2023/06/28 05:07:04;;;;;;;;;;;;;;;17.13;61.39;96693.75;5105198;28;19941;-73
2023/06/28 05:09:31;;;;;;;;;;;;;;;17.20;61.36;96689.06;5102644;28;19963;-73
2023/06/28 05:11:57;;;;;;;;;;;;;;;17.30;61.04;96685.66;5104851;28;20209;-72
2023/06/28 05:14:23;;;;;;;;;;;;;;;17.38;61.29;96685.19;5103173;28;19943;-72
2023/06/28 05:16:49;;;;;;;;;;;;;;;17.48;60.85;96687.91;5103154;28;20228;-73
2023/06/28 05:19:15;;;;;;;;;;;;;;;17.57;60.28;96675.75;5103929;28;19938;-85
2023/06/28 05:21:41;;;;;;;;;;;;;;;17.64;59.40;96670.25;5104212;28;19944;-74
2023/06/28 05:24:06;;;;;;;;;;;;;;;17.71;59.54;96670.81;5103861;28;20097;-74
2023/06/28 05:26:32;;;;;;;;;;;;;;;17.78;59.92;96670.56;5103626;28;19955;-74
2023/06/28 05:28:58;;;;;;;;;;;;;;;17.84;59.71;96666.91;5103756;28;20245;-74
2023/06/28 05:31:24;;;;;;;;;;;;;;;17.87;58.78;96668.25;5104759;28;19956;-72
2023/06/28 05:33:50;;;;;;;;;;;;;;;17.84;57.71;96656.31;5104143;28;19934;-72
2023/06/28 05:36:18;;;;;;;;;;;;;;;17.87;59.38;96666.41;5104091;28;19977;-72
2023/06/28 05:38:44;;;;;;;;;;;;;;;17.90;57.90;96662.44;5103719;28;19943;-74
2023/06/28 05:41:11;;;;;;;;;;;;;;;17.90;58.13;96655.28;5103805;28;19973;-73
2023/06/28 05:43:37;;;;;;;;;;;;;;;17.97;58.41;96663.78;5086077;28;19946;-73
2023/06/28 05:46:03;;;;;;;;;;;;;;;18.01;58.72;96662.22;5104038;28;19946;-73
2023/06/28 05:48:32;;;;;;;;;;;;;;;18.03;59.53;96668.06;5085818;28;19983;-72
2023/06/28 05:50:58;;;;;;;;;;;;;;;18.07;58.43;96664.91;5104729;28;19943;-73
2023/06/28 05:53:24;;;;;;;;;;;;;;;18.11;57.96;96664.09;5103918;28;19958;-73
2023/06/28 05:55:50;;;;;;;;;;;;;;;18.15;57.37;96664.41;5104532;28;19943;-71
2023/06/28 05:58:16;;;;;;;;;;;;;;;18.20;57.83;96667.84;5104134;28;19935;-83
2023/06/28 06:00:42;;;;;;;;;;;;;;;18.26;58.50;96666.78;5103724;28;20014;-83
2023/06/28 06:03:08;;;;;;;;;;;;;;;18.25;57.01;96664.44;5085823;28;19945;-86
2023/06/28 06:05:34;;;;;;;;;;;;;;;18.21;57.30;96668.66;5103370;28;19943;-83
2023/06/28 06:08:00;;;;;;;;;;;;;;;18.21;57.90;96655.38;5102963;28;19943;-83
2023/06/28 06:10:26;;;;;;;;;;;;;;;18.21;57.62;96660.69;5086090;28;19959;-83
2023/06/28 06:12:53;;;;;;;;;;;;;;;18.22;58.41;96671.03;5085989;28;20112;-73
2023/06/28 06:15:19;;;;;;;;;;;;;;;18.26;57.74;96679.28;5103506;28;19936;-74
2023/06/28 06:17:46;;;;;;;;;;;;;;;18.31;58.60;96673.19;5103358;28;20234;-74
2023/06/28 06:20:15;;;;;;;;;;;;;;;18.36;58.17;96662.59;5085840;28;19947;-75
2023/06/28 06:22:41;;;;;;;;;;;;;;;18.45;59.18;96671.63;5107375;28;19943;-75
2023/06/28 06:25:07;;;;;;;;;;;;;;;18.55;58.38;96669.00;5107863;28;20253;-74
2023/06/28 06:27:33;;;;;;;;;;;;;;;18.64;57.74;96669.28;5106762;28;19944;-74
2023/06/28 06:29:59;;;;;;;;;;;;;;;18.65;56.42;96657.59;5106021;28;19952;-72
2023/06/28 06:32:25;;;;;;;;;;;;;;;18.62;56.08;96658.91;5107562;28;19960;-72
2023/06/28 06:34:50;;;;;;;;;;;;;;;18.61;56.37;96667.94;5106447;28;19967;-72
2023/06/28 06:37:16;;;;;;;;;;;;;;;18.73;56.05;96658.91;5106983;28;20164;-73
2023/06/28 06:39:42;;;;;;;;;;;;;;;19.18;56.23;96652.03;5107511;28;19977;-73
2023/06/28 06:42:08;;;;;;;;;;;;;;;19.77;54.32;96653.28;5106899;28;20197;-73
2023/06/28 06:44:34;;;;;;;;;;;;;;;20.18;53.12;96642.44;5106855;28;19938;-73
2023/06/28 06:47:01;;;;;;;;;;;;;;;20.42;51.24;96640.69;5107116;28;19930;-74
2023/06/28 06:49:27;;;;;;;;;;;;;;;20.40;51.84;96648.16;5106838;28;20159;-73
2023/06/28 06:51:53;;;;;;;;;;;;;;;20.28;50.36;96650.38;5106210;28;19939;-75
2023/06/28 06:54:19;;;;;;;;;;;;;;;20.10;52.02;96667.78;5089541;28;19942;-74
2023/06/28 06:56:45;;;;;;;;;;;;;;;19.99;51.77;96659.03;5089554;28;20167;-75
2023/06/28 06:59:11;;;;;;;;;;;;;;;19.92;52.28;96665.72;5089494;28;20129;-75
2023/06/28 07:01:37;;;;;;;;;;;;;;;19.83;52.32;96655.63;5088457;28;20275;-75
2023/06/28 07:04:02;;;;;;;;;;;;;;;19.81;53.03;96657.78;5106317;28;19944;-75
2023/06/28 07:06:28;;;;;;;;;;;;;;;19.81;52.46;96663.09;5105443;28;20034;-74
2023/06/28 07:08:54;;;;;;;;;;;;;;;19.83;52.38;96662.84;5105349;28;19954;-79
2023/06/28 07:11:20;;;;;;;;;;;;;;;19.84;51.90;96667.88;5089279;28;20267;-70
2023/06/28 07:13:46;;;;;;;;;;;;;;;19.80;50.43;96650.06;5089209;28;19944;-70
2023/06/28 07:16:12;;;;;;;;;;;;;;;19.68;51.70;96655.66;5105265;28;20001;-70
2023/06/28 07:18:38;;;;;;;;;;;;;;;19.66;52.35;96650.59;5088832;28;20014;-70
2023/06/28 07:21:04;;;;;;;;;;;;;;;19.72;53.08;96658.59;5105052;28;19936;-70
2023/06/28 07:23:30;;;;;;;;;;;;;;;19.77;52.33;96661.25;5105082;28;19941;-70
2023/06/28 07:25:56;;;;;;;;;;;;;;;19.79;51.82;96667.09;5106528;28;19934;-86
2023/06/28 07:28:21;;;;;;;;;;;;;;;19.80;53.13;96671.34;5107673;28;19939;-70
2023/06/28 07:30:54;;;;;;;;;;;;;;;19.77;52.78;96667.38;5087897;28;19962;-70
2023/06/28 07:33:21;;;;;;;;;;;;;;;19.80;52.40;96666.03;5088457;28;19965;-70
2023/06/28 07:35:47;;;;;;;;;;;;;;;19.85;52.01;96674.78;5106787;28;19942;-70
2023/06/28 07:38:13;;;;;;;;;;;;;;;19.92;52.65;96677.16;5104760;28;19946;-70
2023/06/28 07:40:39;;;;;;;;;;;;;;;19.99;52.04;96664.38;5106352;28;19934;-70
2023/06/28 07:43:05;;;;;;;;;;;;;;;20.08;51.14;96662.72;5106218;28;20002;-70
2023/06/28 07:45:31;;;;;;;;;;;;;;;20.13;51.22;96658.44;5105810;28;19939;-86
2023/06/28 07:47:57;;;;;;;;;;;;;;;20.20;51.89;96669.56;5088484;28;19946;-74
2023/06/28 07:50:23;;;;;;;;;;;;;;;20.20;49.50;96659.75;5105758;28;20232;-72
2023/06/28 07:52:49;;;;;;;;;;;;;;;20.15;50.71;96670.41;5088405;28;19949;-73
2023/06/28 07:55:15;;;;;;;;;;;;;;;20.22;51.48;96670.09;5104409;28;19937;-73
2023/06/28 07:57:41;;;;;;;;;;;;;;;20.30;51.96;96669.53;5088175;28;19939;-73
2023/06/28 08:00:09;;;;;;;;;;;;;;;20.37;51.98;96671.88;5104115;28;19972;-73
2023/06/28 08:02:35;;;;;;;;;;;;;;;20.42;50.32;96669.22;5105665;28;20231;-73
2023/06/28 08:05:01;;;;;;;;;;;;;;;20.39;50.47;96662.56;5106051;28;19933;-70
2023/06/28 08:07:26;;;;;;;;;;;;;;;20.30;48.45;96655.44;5087981;28;19948;-70
2023/06/28 08:09:52;;;;;;;;;;;;;;;20.21;50.34;96668.53;5104017;28;19959;-70
2023/06/28 08:12:18;;;;;;;;;;;;;;;20.12;50.02;96665.63;5105594;28;19939;-70
2023/06/28 08:14:44;;;;;;;;;;;;;;;20.11;51.46;96676.56;5104560;28;20000;-70
2023/06/28 08:17:10;;;;;;;;;;;;;;;20.14;51.33;96671.50;5104973;28;19972;-70
2023/06/28 08:19:36;;;;;;;;;;;;;;;20.18;51.36;96672.53;5105386;28;19980;-70
2023/06/28 08:22:03;;;;;;;;;;;;;;;20.27;51.20;96670.09;5086852;28;20012;-74
2023/06/28 08:24:29;;;;;;;;;;;;;;;20.30;50.50;96658.88;5088006;28;19947;-73
2023/06/28 08:26:55;;;;;;;;;;;;;;;20.36;50.88;96668.44;5105496;28;20207;-74
2023/06/28 08:29:21;;;;;;;;;;;;;;;20.44;50.63;96675.06;5104891;28;19994;-73
2023/06/28 08:31:47;;;;;;;;;;;;;;;20.50;50.20;96662.50;5103697;28;19964;-73
2023/06/28 08:34:13;;;;;;;;;;;;;;;20.58;50.89;96675.25;5104843;28;19941;-74
2023/06/28 08:36:39;;;;;;;;;;;;;;;20.67;51.19;96666.41;5104684;28;19989;-75
2023/06/28 08:39:05;;;;;;;;;;;;;;;20.79;50.69;96662.59;5104772;28;19949;-77
2023/06/28 08:41:31;;;;;;;;;;;;;;;20.92;50.94;96667.31;5105233;28;19944;-76
2023/06/28 08:43:59;;;;;;;;;;;;;;;20.99;49.80;96662.44;5085979;28;19942;-76
2023/06/28 08:46:29;;;;;;;;;;;;;;;21.08;49.64;96658.13;5104299;28;19944;-76
2023/06/28 08:48:55;;;;;;;;;;;;;;;21.14;49.57;96660.72;5086500;28;19939;-76
2023/06/28 08:51:22;;;;;;;;;;;;;;;21.18;48.79;96654.53;5104261;28;20080;-76
2023/06/28 08:53:48;;;;;;;;;;;;;;;21.16;46.58;96651.34;5103469;28;19946;-76
2023/06/28 08:56:15;;;;;;;;;;;;;;;21.16;48.63;96662.03;5105244;28;19934;-76
2023/06/28 08:58:41;;;;;;;;;;;;;;;21.21;48.35;96659.34;5103324;28;20128;-71
2023/06/28 09:01:11;;;;;;;;;;;;;;;21.27;48.22;96663.53;5104199;28;19971;-76
2023/06/28 09:03:40;;;;;;;;;;;;;;;21.33;48.32;96664.28;5102864;28;20453;-76
2023/06/28 09:06:06;;;;;;;;;;;;;;;21.39;48.61;96662.34;5103982;28;19950;-76
2023/06/28 09:08:33;;;;;;;;;;;;;;;21.42;48.61;96664.50;5105120;28;20136;-76
2023/06/28 09:10:59;;;;;;;;;;;;;;;21.42;47.83;96654.63;5086200;28;19959;-76
2023/06/28 09:13:26;;;;;;;;;;;;;;;21.52;47.51;96661.72;5103127;28;20124;-76
2023/06/28 09:15:53;;;;;;;;;;;;;;;21.50;46.75;96650.53;5086317;28;19972;-86
2023/06/28 09:18:19;;;;;;;;;;;;;;;21.48;46.41;96650.81;5086317;28;20145;-73
2023/06/28 09:20:47;;;;;;;;;;;;;;;21.49;47.14;96652.41;5105119;28;19935;-72
2023/06/28 09:23:13;;;;;;;;;;;;;;;21.60;47.07;96654.97;5086095;28;19939;-72
2023/06/28 09:25:41;;;;;;;;;;;;;;;21.68;47.25;96643.66;5103106;28;19951;-72
2023/06/28 09:28:08;;;;;;;;;;;;;;;21.82;47.33;96649.13;5103734;28;19933;-72
2023/06/28 09:30:35;;;;;;;;;;;;;;;21.94;46.53;96646.81;5103490;28;19953;-72
2023/06/28 09:33:03;;;;;;;;;;;;;;;21.93;45.53;96639.13;5104113;28;19966;-72
2023/06/28 09:35:29;;;;;;;;;;;;;;;21.85;45.00;96645.88;5104586;28;20123;-76
2023/06/28 09:37:57;;;;;;;;;;;;;;;21.85;46.26;96648.56;5104056;28;19941;-85
2023/06/28 09:40:23;;;;;;;;;;;;;;;21.93;43.87;96639.13;5086840;28;19962;-83
2023/06/28 09:42:50;;;;;;;;;;;;;;;22.00;45.26;96643.00;5104059;28;20244;-84
2023/06/28 09:45:26;;;;;;;;;;;;;;;22.06;45.63;96652.56;5085916;28;19941;-83
2023/06/28 09:47:56;;;;;;;;;;;;;;;22.17;46.04;96652.44;5103499;28;19938;-83
2023/06/28 09:50:25;;;;;;;;;;;;;;;22.29;45.01;96642.94;5102790;28;19954;-83
2023/06/28 09:52:51;;;;;;;;;;;;;;;22.48;45.49;96631.47;5103093;28;20005;-75
2023/06/28 09:55:18;;;;;;;;;;;;;;;22.67;44.51;96631.44;5105790;28;19954;-72
2023/06/28 09:57:44;;;;;;;;;;;;;;;22.99;42.17;96632.53;5108648;28;19934;-72
2023/06/28 10:00:11;;;;;;;;;;;;;;;23.01;42.95;96625.03;5107620;28;20169;-71
2023/06/28 10:02:38;;;;;;;;;;;;;;;23.11;43.01;96630.22;5107437;28;19940;-72
2023/06/28 10:05:06;;;;;;;;;;;;;;;23.21;42.14;96621.22;5107625;28;19996;-72
2023/06/28 10:07:32;;;;;;;;;;;;;;;23.33;42.07;96624.22;5107668;28;19935;-71
2023/06/28 10:09:58;;;;;;;;;;;;;;;23.49;42.29;96625.50;5108108;28;19956;-71
2023/06/28 10:12:24;;;;;;;;;;;;;;;23.39;40.79;96619.56;5106735;28;19991;-75
2023/06/28 10:14:57;;;;;;;;;;;;;;;23.28;41.61;96627.78;5107566;28;19941;-77
2023/06/28 10:17:23;;;;;;;;;;;;;;;23.28;41.62;96627.78;5106904;28;20241;-78
2023/06/28 10:19:50;;;;;;;;;;;;;;;23.37;42.27;96627.09;5108012;28;19937;-74
2023/06/28 10:22:16;;;;;;;;;;;;;;;23.36;42.25;96628.97;5108213;28;19945;-77
2023/06/28 10:24:42;;;;;;;;;;;;;;;23.22;41.67;96622.81;5107842;28;20008;-72
2023/06/28 10:27:09;;;;;;;;;;;;;;;23.10;41.69;96623.28;5107311;28;19935;-76
2023/06/28 10:29:35;;;;;;;;;;;;;;;23.10;42.90;96626.75;5107770;28;19934;-73
2023/06/28 10:32:02;;;;;;;;;;;;;;;23.23;44.44;96627.09;5105938;28;20134;-73
2023/06/28 10:34:28;;;;;;;;;;;;;;;23.55;43.57;96618.19;5089906;28;20247;-87
2023/06/28 10:36:56;;;;;;;;;;;;;;;23.86;42.59;96612.25;5089207;28;19952;-89
2023/06/28 10:39:22;;;;;;;;;;;;;;;24.17;41.25;96607.06;5107229;28;19934;-88
2023/06/28 10:41:55;;;;;;;;;;;;;;;24.47;41.29;96612.81;5106586;28;19934;-88
2023/06/28 10:44:21;;;;;;;;;;;;;;;24.77;40.71;96614.00;5088948;28;19952;-88
2023/06/28 10:46:50;;;;;;;;;;;;;;;25.01;40.40;96612.88;5089699;28;19941;-87
2023/06/28 10:49:16;;;;;;;;;;;;;;;24.94;40.34;96616.00;5106386;28;19934;-75
2023/06/28 10:51:44;;;;;;;;;;;;;;;24.68;39.68;96610.47;5107311;28;19952;-71
2023/06/28 10:54:12;;;;;;;;;;;;;;;24.39;38.75;96606.28;5106812;28;19949;-72
2023/06/28 10:56:48;;;;;;;;;;;;;;;24.03;39.81;96611.63;5105541;28;19937;-71
2023/06/28 10:59:14;;;;;;;;;;;;;;;24.01;41.47;96609.25;5107204;28;20149;-72
2023/06/28 11:01:43;;;;;;;;;;;;;;;24.28;41.62;96603.03;5106504;28;19963;-72
2023/06/28 11:04:12;;;;;;;;;;;;;;;24.57;40.13;96593.84;5107133;28;19947;-72
2023/06/28 11:06:39;;;;;;;;;;;;;;;24.54;40.63;96597.13;5105833;28;19933;-74
2023/06/28 11:09:13;;;;;;;;;;;;;;;24.52;40.48;96602.78;5106502;28;19934;-82
2023/06/28 11:11:41;;;;;;;;;;;;;;;24.62;40.48;96600.97;5106964;28;19949;-79
2023/06/28 11:14:20;;;;;;;;;;;;;;;24.91;40.37;96605.91;5106400;28;19941;-79
2023/06/28 11:16:48;;;;;;;;;;;;;;;25.25;40.20;96602.63;5088447;28;19942;-79
2023/06/28 11:19:14;;;;;;;;;;;;;;;25.55;39.28;96605.59;5105717;28;19932;-79
2023/06/28 11:21:40;;;;;;;;;;;;;;;25.58;39.42;96604.19;5106003;28;20109;-78
2023/06/28 11:24:06;;;;;;;;;;;;;;;25.43;38.84;96606.19;5106148;28;19932;-73
2023/06/28 11:26:34;;;;;;;;;;;;;;;25.29;40.06;96613.56;5088084;28;19938;-72
2023/06/28 11:28:59;;;;;;;;;;;;;;;25.15;39.00;96608.22;5104987;28;20003;-72
2023/06/28 11:31:37;;;;;;;;;;;;;;;24.98;39.66;96608.94;5087819;28;19969;-73
2023/06/28 11:34:03;;;;;;;;;;;;;;;24.84;38.01;96606.34;5088664;28;19947;-73
2023/06/28 11:36:29;;;;;;;;;;;;;;;24.58;38.86;96606.16;5105340;28;19937;-72
2023/06/28 11:38:55;;;;;;;;;;;;;;;24.48;40.09;96615.22;5087852;28;19960;-73
2023/06/28 11:41:21;;;;;;;;;;;;;;;24.46;40.72;96612.03;5106348;28;19934;-73
2023/06/28 11:43:48;;;;;;;;;;;;;;;24.35;39.61;96604.50;5105855;28;19947;-85
2023/06/28 11:46:17;;;;;;;;;;;;;;;24.30;40.57;96608.09;5088496;28;19940;-73
2023/06/28 11:48:44;;;;;;;;;;;;;;;24.27;40.56;96606.84;5105717;28;19933;-73
2023/06/28 11:51:12;;;;;;;;;;;;;;;24.30;41.12;96608.09;5104719;28;20236;-73
2023/06/28 11:53:38;;;;;;;;;;;;;;;24.21;40.16;96608.03;5088360;28;20199;-73
2023/06/28 11:56:04;;;;;;;;;;;;;;;24.04;39.36;96607.84;5104501;28;19936;-74
2023/06/28 11:58:34;;;;;;;;;;;;;;;23.97;40.64;96615.53;5106039;28;19944;-72
2023/06/28 12:01:02;;;;;;;;;;;;;;;23.94;40.13;96614.25;5104419;28;19965;-72
2023/06/28 12:03:28;;;;;;;;;;;;;;;23.90;40.48;96610.56;5088299;28;19942;-72
2023/06/28 12:05:55;;;;;;;;;;;;;;;23.86;40.25;96604.22;5087392;28;19938;-72
2023/06/28 12:08:21;;;;;;;;;;;;;;;23.83;40.64;96613.66;5087212;28;19941;-72
2023/06/28 12:10:47;;;;;;;;;;;;;;;23.78;40.85;96613.75;5087987;28;19959;-70
2023/06/28 12:13:22;;;;;;;;;;;;;;;23.66;40.83;96614.22;5104867;28;19975;-72
2023/06/28 12:15:48;;;;;;;;;;;;;;;23.65;40.39;96609.16;5105189;28;19939;-72
2023/06/28 12:18:14;;;;;;;;;;;;;;;23.58;41.13;96609.56;5086860;28;19962;-72
2023/06/28 12:20:40;;;;;;;;;;;;;;;23.57;41.22;96612.53;5105812;28;19945;-76
2023/06/28 12:23:12;;;;;;;;;;;;;;;23.58;41.72;96614.94;5105028;28;20185;-73
2023/06/28 12:25:45;;;;;;;;;;;;;;;23.64;41.12;96616.38;5104664;28;19945;-73
2023/06/28 12:28:15;;;;;;;;;;;;;;;23.71;41.26;96613.34;5086833;28;20002;-72
2023/06/28 12:30:41;;;;;;;;;;;;;;;23.74;40.74;96615.41;5103681;28;20269;-72
2023/06/28 12:33:08;;;;;;;;;;;;;;;23.79;41.55;96603.81;5086771;28;19961;-72
2023/06/28 12:35:34;;;;;;;;;;;;;;;23.87;40.98;96600.44;5103739;28;19940;-72
2023/06/28 12:38:02;;;;;;;;;;;;;;;24.01;41.35;96603.91;5086707;28;19939;-72
2023/06/28 12:40:29;;;;;;;;;;;;;;;24.26;40.75;96604.44;5087488;28;19946;-76
2023/06/28 12:43:20;;;;;;;;;;;;;;;24.52;40.93;96599.31;5103698;28;20122;-86
2023/06/28 12:45:51;;;;;;;;;;;;;;;24.56;38.65;96602.19;5104240;28;19952;-85